createdAt,value
2023-10-29T00:00:02.896Z,14.75
2023-10-29T00:03:16.366Z,13.24
2023-10-29T00:06:03.131Z,12.31
2023-10-29T00:08:49.337Z,12.96
2023-10-29T00:11:35.813Z,14.36
2023-10-29T00:14:22.987Z,15.22
2023-10-29T00:17:09.536Z,14.94
2023-10-29T00:19:56.445Z,13.67
2023-10-29T00:22:42.970Z,12.72
2023-10-29T00:25:29.527Z,12.55
2023-10-29T00:28:16.825Z,13.98
2023-10-29T00:31:03.556Z,15.19
2023-10-29T00:33:50.102Z,15.45
2023-10-29T00:36:36.725Z,14.23
2023-10-29T00:39:23.843Z,13.09
2023-10-29T00:42:12.063Z,12.30
2023-10-29T00:44:58.316Z,12.20
2023-10-29T00:47:45.016Z,13.66
2023-10-29T00:50:32.467Z,14.76
2023-10-29T00:53:18.996Z,15.29
2023-10-29T00:56:06.963Z,14.72
2023-10-29T00:58:54.288Z,13.49
2023-10-29T01:01:40.810Z,12.60
2023-10-29T01:04:27.335Z,12.43
2023-10-29T01:07:14.022Z,13.89
2023-10-29T01:10:00.948Z,15.02
2023-10-29T01:12:47.531Z,15.20
2023-10-29T01:15:34.428Z,14.01
2023-10-29T01:18:22.330Z,12.91
2023-10-29T01:21:10.143Z,12.61
2023-10-29T01:23:56.842Z,13.86
2023-10-29T01:26:43.358Z,14.91
2023-10-29T01:29:29.977Z,15.26
2023-10-29T01:32:16.297Z,14.16
2023-10-29T01:35:03.363Z,13.04
2023-10-29T01:37:51.575Z,12.73
2023-10-29T01:40:38.255Z,14.14
2023-10-29T01:43:25.774Z,15.21
2023-10-29T01:46:12.297Z,15.30
2023-10-29T01:48:59.135Z,14.04
2023-10-29T01:51:45.991Z,12.95
2023-10-29T01:54:32.597Z,12.65
2023-10-29T01:57:18.921Z,14.03
2023-10-29T02:00:07.237Z,15.01
2023-10-29T02:03:03.313Z,15.52
2023-10-29T02:05:49.983Z,14.72
2023-10-29T02:08:36.578Z,13.38
2023-10-29T02:11:22.959Z,12.51
2023-10-29T02:14:09.521Z,13.26
2023-10-29T02:16:56.986Z,14.56
2023-10-29T02:19:43.945Z,15.28
2023-10-29T02:22:30.897Z,15.24
2023-10-29T02:25:17.128Z,13.98
2023-10-29T02:28:03.392Z,12.86
2023-10-29T02:30:51.623Z,12.55
2023-10-29T02:33:38.467Z,13.89
2023-10-29T02:36:24.904Z,14.93
2023-10-29T02:39:13.638Z,15.51
2023-10-29T02:42:00.244Z,15.36
2023-10-29T02:44:47.229Z,14.05
2023-10-29T02:47:34.148Z,12.88
2023-10-29T02:50:20.896Z,12.55
2023-10-29T02:53:07.781Z,13.90
2023-10-29T02:55:59.109Z,14.91
2023-10-29T02:58:45.874Z,15.50
2023-10-29T03:01:32.443Z,14.86
2023-10-29T03:04:19.280Z,13.59
2023-10-29T03:07:05.802Z,12.68
2023-10-29T03:09:52.872Z,13.29
2023-10-29T03:12:39.468Z,14.53
2023-10-29T03:15:27.258Z,15.26
2023-10-29T03:18:14.904Z,15.22
2023-10-29T03:21:01.709Z,13.98
2023-10-29T03:23:48.655Z,12.80
2023-10-29T03:26:35.674Z,12.48
2023-10-29T03:29:23.274Z,13.76
2023-10-29T03:32:09.850Z,14.75
2023-10-29T03:34:56.510Z,15.29
2023-10-29T03:37:43.354Z,15.18
2023-10-29T03:40:30.869Z,13.94
2023-10-29T03:43:17.269Z,12.78
2023-10-29T03:46:11.184Z,12.57
2023-10-29T03:48:57.670Z,13.94
2023-10-29T03:51:46.209Z,14.88
2023-10-29T03:54:35.406Z,15.51
2023-10-29T03:57:22.050Z,15.36
2023-10-29T04:00:10.310Z,13.98
2023-10-29T04:02:59.953Z,12.75
2023-10-29T04:05:47.586Z,12.54
2023-10-29T04:08:34.333Z,13.92
2023-10-29T04:11:21.204Z,14.90
2023-10-29T04:14:08.051Z,15.50
2023-10-29T04:16:54.495Z,15.39
2023-10-29T04:19:41.234Z,14.09
2023-10-29T04:22:27.754Z,12.97
2023-10-29T04:25:14.478Z,12.79
2023-10-29T04:28:00.752Z,14.16
2023-10-29T04:30:47.873Z,15.18
2023-10-29T04:33:34.676Z,15.80
2023-10-29T04:36:25.756Z,14.92
2023-10-29T04:39:12.225Z,13.56
2023-10-29T04:41:58.920Z,13.16
2023-10-29T04:44:45.179Z,14.34
2023-10-29T04:47:31.693Z,15.21
2023-10-29T04:50:18.127Z,15.71
2023-10-29T04:53:04.599Z,15.06
2023-10-29T04:55:51.253Z,13.68
2023-10-29T04:58:38.385Z,12.69
2023-10-29T05:01:26.086Z,13.39
2023-10-29T05:04:12.601Z,14.69
2023-10-29T05:06:59.493Z,15.25
2023-10-29T05:09:45.899Z,15.68
2023-10-29T05:12:32.613Z,15.44
2023-10-29T05:15:18.838Z,14.07
2023-10-29T05:18:05.965Z,12.95
2023-10-29T05:20:52.559Z,12.65
2023-10-29T05:23:39.701Z,13.89
2023-10-29T05:26:26.150Z,14.84
2023-10-29T05:29:12.676Z,15.35
2023-10-29T05:31:59.610Z,15.68
2023-10-29T05:34:46.068Z,15.58
2023-10-29T05:37:33.050Z,14.28
2023-10-29T05:40:19.615Z,13.11
2023-10-29T05:43:06.310Z,12.85
2023-10-29T05:45:52.838Z,14.25
2023-10-29T05:48:39.707Z,15.32
2023-10-29T05:51:25.810Z,15.75
2023-10-29T05:54:12.179Z,15.74
2023-10-29T05:56:59.492Z,14.51
2023-10-29T05:59:46.249Z,13.30
2023-10-29T06:02:33.462Z,12.99
2023-10-29T06:05:20.387Z,14.23
2023-10-29T06:08:07.167Z,15.11
2023-10-29T06:10:53.837Z,15.60
2023-10-29T06:13:40.165Z,16.05
2023-10-29T06:16:26.745Z,15.87
2023-10-29T06:19:13.170Z,14.53
2023-10-29T06:21:59.820Z,13.70
2023-10-29T06:24:46.638Z,14.78
2023-10-29T06:27:33.505Z,15.71
2023-10-29T06:30:19.804Z,16.12
2023-10-29T06:33:06.395Z,15.34
2023-10-29T06:35:53.338Z,14.04
2023-10-29T06:38:40.110Z,13.65
2023-10-29T06:41:26.402Z,14.85
2023-10-29T06:44:12.876Z,15.66
2023-10-29T06:46:59.442Z,16.10
2023-10-29T06:49:45.895Z,16.06
2023-10-29T06:52:32.665Z,14.86
2023-10-29T06:55:19.162Z,13.79
2023-10-29T06:58:05.859Z,13.65
2023-10-29T07:00:53.969Z,15.12
2023-10-29T07:03:40.576Z,16.16
2023-10-29T07:06:27.300Z,16.63
2023-10-29T07:09:16.543Z,15.99
2023-10-29T07:12:03.084Z,14.72
2023-10-29T07:14:50.805Z,14.27
2023-10-29T07:17:38.145Z,15.42
2023-10-29T07:20:24.488Z,16.27
2023-10-29T07:23:11.145Z,16.71
2023-10-29T07:25:57.824Z,15.84
2023-10-29T07:28:44.507Z,14.68
2023-10-29T07:31:31.903Z,13.81
2023-10-29T07:34:18.864Z,13.79
2023-10-29T07:37:05.605Z,15.22
2023-10-29T07:39:52.039Z,16.10
2023-10-29T07:42:38.831Z,16.59
2023-10-29T07:45:25.516Z,16.87
2023-10-29T07:48:11.914Z,16.85
2023-10-29T07:50:58.413Z,15.67
2023-10-29T07:53:45.554Z,14.59
2023-10-29T07:56:32.194Z,14.33
2023-10-29T07:59:18.737Z,15.54
2023-10-29T08:02:06.451Z,16.45
2023-10-29T08:04:52.901Z,17.00
2023-10-29T08:07:40.785Z,16.50
2023-10-29T08:10:27.083Z,15.22
2023-10-29T08:13:13.974Z,14.75
2023-10-29T08:16:00.588Z,15.90
2023-10-29T08:18:47.550Z,16.75
2023-10-29T08:21:34.561Z,17.26
2023-10-29T08:24:20.886Z,16.72
2023-10-29T08:27:08.359Z,15.52
2023-10-29T08:29:55.195Z,14.59
2023-10-29T08:32:41.582Z,14.48
2023-10-29T08:35:27.974Z,15.82
2023-10-29T08:38:15.650Z,16.71
2023-10-29T08:41:02.368Z,17.29
2023-10-29T08:43:49.281Z,17.48
2023-10-29T08:46:36.139Z,16.42
2023-10-29T08:49:22.598Z,15.27
2023-10-29T08:52:09.148Z,14.94
2023-10-29T08:54:55.871Z,16.22
2023-10-29T08:57:42.669Z,17.18
2023-10-29T09:00:38.267Z,17.63
2023-10-29T09:03:29.078Z,17.68
2023-10-29T09:06:15.979Z,16.54
2023-10-29T09:09:03.415Z,15.53
2023-10-29T09:11:54.715Z,15.38
2023-10-29T09:14:41.623Z,16.67
2023-10-29T09:17:28.408Z,17.48
2023-10-29T09:20:14.945Z,18.05
2023-10-29T09:23:02.018Z,18.00
2023-10-29T09:25:48.551Z,16.85
2023-10-29T09:28:35.316Z,15.81
2023-10-29T09:31:22.278Z,15.55
2023-10-29T09:34:09.062Z,16.79
2023-10-29T09:36:55.433Z,17.73
2023-10-29T09:39:42.156Z,18.30
2023-10-29T09:42:33.440Z,17.74
2023-10-29T09:45:24.536Z,16.54
2023-10-29T09:48:11.349Z,16.23
2023-10-29T09:50:57.966Z,17.37
2023-10-29T09:53:45.486Z,18.10
2023-10-29T09:56:35.119Z,18.43
2023-10-29T09:59:21.424Z,17.41
2023-10-29T10:02:08.240Z,16.35
2023-10-29T10:04:55.510Z,16.16
2023-10-29T10:07:42.315Z,17.40
2023-10-29T10:10:39.126Z,18.20
2023-10-29T10:13:40.546Z,18.66
2023-10-29T10:16:26.849Z,18.44
2023-10-29T10:19:14.786Z,17.21
2023-10-29T10:22:01.234Z,16.24
2023-10-29T10:24:49.651Z,16.06
2023-10-29T10:27:50.286Z,17.25
2023-10-29T10:30:39.046Z,18.11
2023-10-29T10:33:26.482Z,18.63
2023-10-29T10:36:13.601Z,18.51
2023-10-29T10:39:01.858Z,17.29
2023-10-29T10:41:49.926Z,16.73
2023-10-29T10:44:37.534Z,17.71
2023-10-29T10:47:27.882Z,18.44
2023-10-29T10:50:15.197Z,18.42
2023-10-29T10:53:02.926Z,17.16
2023-10-29T10:56:02.160Z,16.68
2023-10-29T10:58:50.604Z,17.84
2023-10-29T11:01:39.420Z,18.47
2023-10-29T11:04:28.058Z,18.78
2023-10-29T11:07:14.841Z,18.68
2023-10-29T11:10:04.061Z,17.57
2023-10-29T11:12:50.647Z,16.66
2023-10-29T11:15:47.519Z,16.63
2023-10-29T11:18:34.414Z,18.19
2023-10-29T11:21:33.123Z,19.23
2023-10-29T11:24:23.486Z,19.30
2023-10-29T11:27:38.671Z,18.29
2023-10-29T11:30:29.636Z,17.32
2023-10-29T11:33:23.013Z,17.38
2023-10-29T11:36:34.223Z,18.77
2023-10-29T11:39:30.052Z,19.27
2023-10-29T11:42:28.339Z,18.28
2023-10-29T11:45:35.934Z,17.22
2023-10-29T11:48:22.269Z,17.16
2023-10-29T11:51:12.125Z,18.53
2023-10-29T11:54:04.105Z,19.28
2023-10-29T11:56:53.912Z,18.62
2023-10-29T11:59:54.798Z,17.55
2023-10-29T12:02:44.249Z,17.76
2023-10-29T12:05:30.686Z,18.79
2023-10-29T12:08:17.831Z,19.30
2023-10-29T12:11:04.160Z,19.30
2023-10-29T12:13:50.581Z,18.19
2023-10-29T12:16:38.345Z,17.17
2023-10-29T12:19:46.372Z,16.98
2023-10-29T12:22:33.351Z,18.53
2023-10-29T12:25:21.994Z,19.37
2023-10-29T12:28:09.395Z,19.28
2023-10-29T12:30:57.875Z,17.99
2023-10-29T12:33:55.825Z,16.92
2023-10-29T12:36:52.697Z,17.50
2023-10-29T12:39:45.644Z,18.68
2023-10-29T12:42:54.918Z,19.29
2023-10-29T12:45:41.436Z,19.52
2023-10-29T12:48:28.398Z,18.81
2023-10-29T12:51:23.342Z,17.65
2023-10-29T12:54:17.743Z,17.30
2023-10-29T12:57:04.545Z,18.55
2023-10-29T12:59:51.456Z,19.19
2023-10-29T13:02:38.209Z,19.37
2023-10-29T13:05:24.774Z,18.66
2023-10-29T13:08:13.855Z,17.45
2023-10-29T13:11:01.265Z,17.67
2023-10-29T13:13:55.478Z,18.84
2023-10-29T13:16:57.416Z,19.49
2023-10-29T13:19:44.291Z,19.31
2023-10-29T13:22:30.850Z,18.05
2023-10-29T13:25:18.046Z,17.29
2023-10-29T13:28:05.675Z,18.32
2023-10-29T13:30:56.501Z,19.18
2023-10-29T13:33:44.013Z,19.49
2023-10-29T13:36:30.809Z,18.57
2023-10-29T13:39:20.167Z,17.43
2023-10-29T13:42:07.303Z,17.20
2023-10-29T13:44:57.034Z,18.47
2023-10-29T13:47:44.214Z,19.28
2023-10-29T13:50:31.513Z,19.69
2023-10-29T13:53:18.330Z,19.52
2023-10-29T13:56:12.806Z,18.29
2023-10-29T13:58:59.161Z,17.66
2023-10-29T14:01:45.602Z,18.71
2023-10-29T14:04:32.108Z,19.43
2023-10-29T14:07:18.736Z,19.28
2023-10-29T14:10:06.346Z,17.98
2023-10-29T14:12:52.942Z,17.49
2023-10-29T14:15:39.147Z,18.45
2023-10-29T14:18:25.720Z,19.20
2023-10-29T14:21:12.649Z,19.62
2023-10-29T14:24:00.130Z,19.27
2023-10-29T14:26:46.465Z,18.02
2023-10-29T14:29:33.027Z,17.56
2023-10-29T14:32:19.673Z,18.65
2023-10-29T14:35:07.129Z,19.19
2023-10-29T14:37:53.998Z,19.53
2023-10-29T14:40:40.692Z,19.51
2023-10-29T14:43:27.431Z,18.17
2023-10-29T14:46:14.114Z,17.48
2023-10-29T14:49:00.686Z,18.45
2023-10-29T14:51:47.259Z,19.09
2023-10-29T14:54:34.110Z,19.43
2023-10-29T14:57:29.659Z,19.37
2023-10-29T15:00:17.160Z,17.84
2023-10-29T15:03:04.176Z,17.24
2023-10-29T15:05:51.039Z,18.26
2023-10-29T15:08:38.348Z,19.09
2023-10-29T15:11:36.807Z,19.59
2023-10-29T15:14:23.909Z,19.43
2023-10-29T15:17:10.892Z,18.13
2023-10-29T15:20:00.627Z,17.36
2023-10-29T15:22:50.463Z,18.41
2023-10-29T15:25:44.159Z,19.33
2023-10-29T15:28:30.585Z,19.65
2023-10-29T15:31:17.969Z,18.50
2023-10-29T15:34:04.798Z,17.45
2023-10-29T15:36:51.388Z,18.13
2023-10-29T15:39:38.959Z,18.85
2023-10-29T15:42:26.389Z,19.33
2023-10-29T15:45:12.786Z,18.95
2023-10-29T15:47:59.632Z,17.52
2023-10-29T15:50:53.951Z,17.19
2023-10-29T15:53:40.701Z,18.30
2023-10-29T15:56:28.142Z,19.01
2023-10-29T15:59:14.533Z,18.97
2023-10-29T16:02:01.614Z,17.92
2023-10-29T16:04:48.459Z,17.34
2023-10-29T16:07:35.526Z,18.29
2023-10-29T16:10:22.393Z,19.04
2023-10-29T16:13:08.893Z,18.62
2023-10-29T16:15:55.467Z,17.34
2023-10-29T16:18:41.797Z,16.93
2023-10-29T16:21:28.448Z,17.98
2023-10-29T16:24:15.043Z,18.82
2023-10-29T16:27:01.943Z,18.48
2023-10-29T16:29:48.766Z,17.20
2023-10-29T16:32:35.690Z,16.93
2023-10-29T16:35:22.805Z,17.94
2023-10-29T16:38:10.352Z,18.74
2023-10-29T16:40:57.993Z,18.39
2023-10-29T16:43:48.389Z,17.13
2023-10-29T16:46:38.867Z,16.72
2023-10-29T16:49:26.005Z,17.89
2023-10-29T16:52:15.656Z,18.74
2023-10-29T16:55:02.582Z,18.62
2023-10-29T16:57:49.515Z,17.33
2023-10-29T17:00:36.435Z,17.33
2023-10-29T17:03:23.360Z,18.36
2023-10-29T17:06:11.760Z,18.92
2023-10-29T17:08:59.732Z,18.14
2023-10-29T17:11:48.725Z,17.01
2023-10-29T17:14:35.951Z,17.45
2023-10-29T17:17:23.217Z,18.59
2023-10-29T17:20:11.927Z,18.75
2023-10-29T17:22:58.852Z,17.50
2023-10-29T17:25:45.925Z,17.22
2023-10-29T17:28:32.679Z,18.35
2023-10-29T17:31:20.246Z,19.03
2023-10-29T17:34:07.658Z,18.47
2023-10-29T17:36:54.411Z,17.19
2023-10-29T17:39:41.391Z,17.13
2023-10-29T17:42:30.580Z,18.25
2023-10-29T17:45:18.004Z,18.72
2023-10-29T17:48:05.657Z,17.75
2023-10-29T17:50:59.408Z,16.85
2023-10-29T17:53:48.151Z,17.78
2023-10-29T17:56:34.917Z,18.56
2023-10-29T17:59:22.631Z,17.80
2023-10-29T18:02:09.486Z,16.66
2023-10-29T18:04:55.987Z,16.95
2023-10-29T18:07:43.422Z,18.22
2023-10-29T18:10:30.630Z,18.24
2023-10-29T18:13:17.385Z,17.09
2023-10-29T18:16:05.015Z,16.72
2023-10-29T18:18:52.326Z,17.95
2023-10-29T18:21:39.216Z,18.94
2023-10-29T18:24:26.466Z,18.68
2023-10-29T18:27:14.885Z,17.47
2023-10-29T18:30:02.738Z,16.52
2023-10-29T18:32:50.566Z,16.36
2023-10-29T18:35:37.874Z,17.73
2023-10-29T18:38:24.934Z,18.76
2023-10-29T18:41:19.679Z,18.89
2023-10-29T18:44:08.032Z,17.64
2023-10-29T18:46:54.949Z,17.01
2023-10-29T18:49:42.172Z,17.99
2023-10-29T18:52:29.159Z,18.95
2023-10-29T18:55:15.973Z,18.49
2023-10-29T18:58:03.458Z,17.27
2023-10-29T19:00:52.647Z,16.91
2023-10-29T19:03:41.352Z,18.19
2023-10-29T19:06:28.956Z,18.93
2023-10-29T19:09:16.400Z,18.30
2023-10-29T19:12:06.655Z,17.18
2023-10-29T19:14:53.972Z,17.58
2023-10-29T19:17:43.042Z,18.71
2023-10-29T19:20:29.910Z,19.01
2023-10-29T19:23:16.783Z,17.85
2023-10-29T19:26:04.164Z,16.91
2023-10-29T19:28:51.456Z,17.55
2023-10-29T19:31:38.956Z,18.75
2023-10-29T19:34:27.878Z,19.04
2023-10-29T19:37:18.339Z,17.78
2023-10-29T19:40:06.926Z,17.64
2023-10-29T19:42:54.744Z,18.79
2023-10-29T19:45:41.776Z,18.87
2023-10-29T19:48:32.634Z,17.84
2023-10-29T19:51:19.980Z,17.50
2023-10-29T19:54:06.939Z,18.74
2023-10-29T19:56:53.928Z,19.04
2023-10-29T19:59:41.467Z,17.92
2023-10-29T20:02:28.881Z,17.55
2023-10-29T20:05:15.696Z,18.68
2023-10-29T20:08:02.544Z,19.26
2023-10-29T20:10:49.618Z,18.32
2023-10-29T20:13:37.923Z,17.34
2023-10-29T20:16:24.822Z,18.05
2023-10-29T20:19:11.781Z,19.14
2023-10-29T20:22:01.185Z,19.00
2023-10-29T20:24:47.800Z,17.78
2023-10-29T20:27:36.742Z,17.03
2023-10-29T20:30:24.351Z,18.05
2023-10-29T20:33:11.469Z,19.01
2023-10-29T20:35:58.702Z,19.27
2023-10-29T20:38:45.373Z,18.13
2023-10-29T20:41:32.044Z,17.29
2023-10-29T20:44:18.769Z,18.14
2023-10-29T20:47:06.825Z,19.11
2023-10-29T20:49:52.947Z,19.26
2023-10-29T20:52:40.164Z,18.08
2023-10-29T20:55:27.611Z,17.41
2023-10-29T20:58:14.836Z,18.46
2023-10-29T21:01:04.387Z,19.29
2023-10-29T21:03:51.397Z,18.86
2023-10-29T21:06:38.368Z,17.62
2023-10-29T21:09:24.977Z,17.36
2023-10-29T21:12:11.693Z,18.58
2023-10-29T21:14:58.553Z,19.13
2023-10-29T21:17:45.859Z,18.18
2023-10-29T21:20:32.994Z,17.23
2023-10-29T21:23:20.691Z,17.64
2023-10-29T21:26:07.106Z,18.82
2023-10-29T21:28:53.499Z,18.71
2023-10-29T21:31:40.243Z,17.57
2023-10-29T21:34:27.034Z,17.61
2023-10-29T21:37:13.490Z,18.57
2023-10-29T21:40:23.437Z,19.20
2023-10-29T21:43:18.546Z,18.24
2023-10-29T21:46:06.667Z,17.56
2023-10-29T21:49:07.857Z,18.51
2023-10-29T21:52:04.711Z,19.19
2023-10-29T21:54:56.702Z,17.95
2023-10-29T21:57:51.297Z,18.29
2023-10-29T22:00:38.350Z,19.09
2023-10-29T22:03:34.010Z,19.17
2023-10-29T22:06:33.824Z,17.80
2023-10-29T22:09:20.188Z,17.92
2023-10-29T22:12:06.894Z,19.11
2023-10-29T22:14:54.019Z,19.39
2023-10-29T22:17:40.509Z,18.39
2023-10-29T22:20:30.291Z,17.90
2023-10-29T22:23:16.851Z,19.09
2023-10-29T22:26:04.357Z,19.57
2023-10-29T22:28:51.000Z,19.05
2023-10-29T22:31:38.443Z,17.79
2023-10-29T22:34:24.904Z,18.14
2023-10-29T22:37:22.142Z,19.37
2023-10-29T22:40:11.406Z,19.53
2023-10-29T22:43:04.246Z,19.72
2023-10-29T22:45:50.779Z,18.90
2023-10-29T22:48:37.318Z,17.64
2023-10-29T22:51:32.794Z,18.42
2023-10-29T22:54:19.376Z,19.18
2023-10-29T22:57:11.356Z,19.47
2023-10-29T22:59:58.255Z,19.72
2023-10-29T23:02:45.713Z,19.14
2023-10-29T23:05:33.595Z,17.69
2023-10-29T23:08:19.999Z,17.20
2023-10-29T23:11:07.587Z,18.27
2023-10-29T23:13:54.257Z,18.94
2023-10-29T23:16:41.090Z,19.33
2023-10-29T23:19:28.248Z,19.48
2023-10-29T23:22:14.976Z,19.14
2023-10-29T23:25:01.314Z,17.72
2023-10-29T23:27:47.862Z,17.46
2023-10-29T23:30:34.397Z,18.50
2023-10-29T23:33:20.798Z,18.91
2023-10-29T23:36:08.004Z,19.12
2023-10-29T23:38:54.115Z,19.31
2023-10-29T23:41:41.024Z,19.41
2023-10-29T23:44:27.873Z,18.25
2023-10-29T23:47:14.690Z,17.45
2023-10-29T23:50:01.630Z,18.15
2023-10-29T23:52:48.242Z,18.87
2023-10-29T23:55:34.866Z,19.37
2023-10-29T23:58:21.583Z,19.53
